sensor_id;sensor_type;location;lat;lon;timestamp;P1;durP1;ratioP1;P2;durP2;ratioP2
29812;SDS011;16707;48.106;11.548;2023-04-06T00:00:04;8.75;;;6.88;;
29812;SDS011;16707;48.106;11.548;2023-04-06T00:02:33;11.23;;;7.80;;
29812;SDS011;16707;48.106;11.548;2023-04-06T00:05:01;8.90;;;7.63;;
29812;SDS011;16707;48.106;11.548;2023-04-06T00:07:31;9.85;;;7.35;;
29812;SDS011;16707;48.106;11.548;2023-04-06T00:10:10;10.00;;;7.32;;
29812;SDS011;16707;48.106;11.548;2023-04-06T00:12:37;9.00;;;7.28;;
29812;SDS011;16707;48.106;11.548;2023-04-06T00:15:07;11.48;;;7.50;;
29812;SDS011;16707;48.106;11.548;2023-04-06T00:17:35;8.63;;;6.55;;
29812;SDS011;16707;48.106;11.548;2023-04-06T00:20:02;9.75;;;7.50;;
29812;SDS011;16707;48.106;11.548;2023-04-06T00:22:30;9.48;;;7.00;;
29812;SDS011;16707;48.106;11.548;2023-04-06T00:24:58;10.60;;;7.07;;
29812;SDS011;16707;48.106;11.548;2023-04-06T00:27:27;11.95;;;7.75;;
29812;SDS011;16707;48.106;11.548;2023-04-06T00:29:53;8.50;;;6.43;;
29812;SDS011;16707;48.106;11.548;2023-04-06T00:32:21;9.43;;;7.95;;
29812;SDS011;16707;48.106;11.548;2023-04-06T00:34:48;10.88;;;7.30;;
29812;SDS011;16707;48.106;11.548;2023-04-06T00:37:15;9.27;;;6.82;;
29812;SDS011;16707;48.106;11.548;2023-04-06T00:39:45;12.20;;;7.20;;
29812;SDS011;16707;48.106;11.548;2023-04-06T00:42:12;13.70;;;7.07;;
29812;SDS011;16707;48.106;11.548;2023-04-06T00:44:42;11.40;;;6.93;;
29812;SDS011;16707;48.106;11.548;2023-04-06T00:47:09;12.65;;;7.63;;
29812;SDS011;16707;48.106;11.548;2023-04-06T00:49:36;8.40;;;6.80;;
29812;SDS011;16707;48.106;11.548;2023-04-06T00:52:10;9.73;;;7.05;;
29812;SDS011;16707;48.106;11.548;2023-04-06T00:54:40;11.20;;;7.03;;
29812;SDS011;16707;48.106;11.548;2023-04-06T00:57:08;9.80;;;7.47;;
29812;SDS011;16707;48.106;11.548;2023-04-06T00:59:35;9.75;;;6.93;;
29812;SDS011;16707;48.106;11.548;2023-04-06T01:02:04;9.45;;;7.38;;
29812;SDS011;16707;48.106;11.548;2023-04-06T01:04:31;8.10;;;6.43;;
29812;SDS011;16707;48.106;11.548;2023-04-06T01:07:01;11.18;;;7.53;;
29812;SDS011;16707;48.106;11.548;2023-04-06T01:09:28;9.68;;;7.18;;
29812;SDS011;16707;48.106;11.548;2023-04-06T01:12:13;9.23;;;7.40;;
29812;SDS011;16707;48.106;11.548;2023-04-06T01:14:40;10.77;;;7.73;;
29812;SDS011;16707;48.106;11.548;2023-04-06T01:17:09;9.30;;;7.15;;
29812;SDS011;16707;48.106;11.548;2023-04-06T01:19:38;8.15;;;7.22;;
29812;SDS011;16707;48.106;11.548;2023-04-06T01:22:15;8.82;;;6.63;;
29812;SDS011;16707;48.106;11.548;2023-04-06T01:24:45;9.75;;;7.50;;
29812;SDS011;16707;48.106;11.548;2023-04-06T01:27:13;11.43;;;6.82;;
29812;SDS011;16707;48.106;11.548;2023-04-06T01:29:51;10.05;;;7.25;;
29812;SDS011;16707;48.106;11.548;2023-04-06T01:32:18;9.52;;;7.25;;
29812;SDS011;16707;48.106;11.548;2023-04-06T01:34:45;9.05;;;6.68;;
29812;SDS011;16707;48.106;11.548;2023-04-06T01:37:14;9.27;;;7.20;;
29812;SDS011;16707;48.106;11.548;2023-04-06T01:39:41;8.63;;;6.90;;
29812;SDS011;16707;48.106;11.548;2023-04-06T01:42:19;10.63;;;7.22;;
29812;SDS011;16707;48.106;11.548;2023-04-06T01:44:47;9.82;;;7.13;;
29812;SDS011;16707;48.106;11.548;2023-04-06T01:47:14;10.15;;;7.10;;
29812;SDS011;16707;48.106;11.548;2023-04-06T01:49:41;9.80;;;7.57;;
29812;SDS011;16707;48.106;11.548;2023-04-06T01:52:07;10.68;;;7.15;;
29812;SDS011;16707;48.106;11.548;2023-04-06T01:54:36;8.77;;;6.82;;
29812;SDS011;16707;48.106;11.548;2023-04-06T01:57:06;9.15;;;7.10;;
29812;SDS011;16707;48.106;11.548;2023-04-06T01:59:33;9.48;;;6.90;;
29812;SDS011;16707;48.106;11.548;2023-04-06T02:02:00;9.95;;;7.40;;
29812;SDS011;16707;48.106;11.548;2023-04-06T02:04:27;9.48;;;7.60;;
29812;SDS011;16707;48.106;11.548;2023-04-06T02:06:54;10.43;;;7.40;;
29812;SDS011;16707;48.106;11.548;2023-04-06T02:09:23;9.98;;;7.43;;
29812;SDS011;16707;48.106;11.548;2023-04-06T02:11:54;11.00;;;7.57;;
29812;SDS011;16707;48.106;11.548;2023-04-06T02:14:24;11.20;;;7.82;;
29812;SDS011;16707;48.106;11.548;2023-04-06T02:16:52;11.23;;;7.72;;
29812;SDS011;16707;48.106;11.548;2023-04-06T02:19:19;11.23;;;7.90;;
29812;SDS011;16707;48.106;11.548;2023-04-06T02:21:49;10.48;;;7.93;;
29812;SDS011;16707;48.106;11.548;2023-04-06T02:24:15;11.77;;;8.05;;
29812;SDS011;16707;48.106;11.548;2023-04-06T02:26:43;11.38;;;7.90;;
29812;SDS011;16707;48.106;11.548;2023-04-06T02:29:18;9.40;;;7.68;;
29812;SDS011;16707;48.106;11.548;2023-04-06T02:31:48;11.82;;;7.55;;
29812;SDS011;16707;48.106;11.548;2023-04-06T02:34:18;10.30;;;6.95;;
29812;SDS011;16707;48.106;11.548;2023-04-06T02:36:45;9.27;;;7.35;;
29812;SDS011;16707;48.106;11.548;2023-04-06T02:39:19;9.38;;;7.50;;
29812;SDS011;16707;48.106;11.548;2023-04-06T02:41:46;11.50;;;8.55;;
29812;SDS011;16707;48.106;11.548;2023-04-06T02:44:13;12.02;;;7.78;;
29812;SDS011;16707;48.106;11.548;2023-04-06T02:46:42;13.15;;;7.72;;
29812;SDS011;16707;48.106;11.548;2023-04-06T02:49:09;14.48;;;7.90;;
29812;SDS011;16707;48.106;11.548;2023-04-06T02:51:36;11.25;;;7.53;;
29812;SDS011;16707;48.106;11.548;2023-04-06T02:54:03;12.23;;;8.75;;
29812;SDS011;16707;48.106;11.548;2023-04-06T02:56:33;10.60;;;8.15;;
29812;SDS011;16707;48.106;11.548;2023-04-06T02:59:02;10.65;;;8.32;;
29812;SDS011;16707;48.106;11.548;2023-04-06T03:01:42;16.30;;;8.15;;
29812;SDS011;16707;48.106;11.548;2023-04-06T03:04:10;10.20;;;7.63;;
29812;SDS011;16707;48.106;11.548;2023-04-06T03:06:39;10.52;;;8.02;;
29812;SDS011;16707;48.106;11.548;2023-04-06T03:09:08;11.38;;;8.50;;
29812;SDS011;16707;48.106;11.548;2023-04-06T03:11:36;11.15;;;7.53;;
29812;SDS011;16707;48.106;11.548;2023-04-06T03:14:04;10.13;;;7.90;;
29812;SDS011;16707;48.106;11.548;2023-04-06T03:16:37;11.60;;;8.23;;
29812;SDS011;16707;48.106;11.548;2023-04-06T03:19:05;11.73;;;8.05;;
29812;SDS011;16707;48.106;11.548;2023-04-06T03:21:34;11.18;;;7.93;;
29812;SDS011;16707;48.106;11.548;2023-04-06T03:24:01;13.52;;;8.30;;
29812;SDS011;16707;48.106;11.548;2023-04-06T03:26:29;11.85;;;8.35;;
29812;SDS011;16707;48.106;11.548;2023-04-06T03:28:56;10.93;;;8.20;;
29812;SDS011;16707;48.106;11.548;2023-04-06T03:31:26;11.65;;;8.02;;
29812;SDS011;16707;48.106;11.548;2023-04-06T03:33:56;9.80;;;7.70;;
29812;SDS011;16707;48.106;11.548;2023-04-06T03:36:25;12.88;;;8.43;;
29812;SDS011;16707;48.106;11.548;2023-04-06T03:39:00;10.32;;;7.82;;
29812;SDS011;16707;48.106;11.548;2023-04-06T03:41:33;10.85;;;8.07;;
29812;SDS011;16707;48.106;11.548;2023-04-06T03:44:00;10.77;;;7.97;;
29812;SDS011;16707;48.106;11.548;2023-04-06T03:46:31;12.30;;;8.35;;
29812;SDS011;16707;48.106;11.548;2023-04-06T03:49:01;11.75;;;8.65;;
29812;SDS011;16707;48.106;11.548;2023-04-06T03:51:32;14.63;;;9.27;;
29812;SDS011;16707;48.106;11.548;2023-04-06T03:54:00;11.98;;;7.93;;
29812;SDS011;16707;48.106;11.548;2023-04-06T03:56:30;9.48;;;7.80;;
29812;SDS011;16707;48.106;11.548;2023-04-06T03:59:01;11.30;;;8.35;;
29812;SDS011;16707;48.106;11.548;2023-04-06T04:01:32;10.38;;;7.85;;
29812;SDS011;16707;48.106;11.548;2023-04-06T04:04:02;13.75;;;8.10;;
29812;SDS011;16707;48.106;11.548;2023-04-06T04:06:29;11.75;;;8.02;;
29812;SDS011;16707;48.106;11.548;2023-04-06T04:08:57;9.40;;;7.95;;
29812;SDS011;16707;48.106;11.548;2023-04-06T04:11:28;11.48;;;8.20;;
29812;SDS011;16707;48.106;11.548;2023-04-06T04:13:55;11.40;;;8.13;;
29812;SDS011;16707;48.106;11.548;2023-04-06T04:16:22;12.18;;;8.85;;
29812;SDS011;16707;48.106;11.548;2023-04-06T04:18:51;12.77;;;7.57;;
29812;SDS011;16707;48.106;11.548;2023-04-06T04:21:18;12.63;;;8.48;;
29812;SDS011;16707;48.106;11.548;2023-04-06T04:23:45;12.27;;;7.78;;
29812;SDS011;16707;48.106;11.548;2023-04-06T04:26:14;9.57;;;7.32;;
29812;SDS011;16707;48.106;11.548;2023-04-06T04:28:41;10.48;;;7.72;;
29812;SDS011;16707;48.106;11.548;2023-04-06T04:31:08;12.00;;;7.97;;
29812;SDS011;16707;48.106;11.548;2023-04-06T04:33:35;13.68;;;8.00;;
29812;SDS011;16707;48.106;11.548;2023-04-06T04:36:03;11.18;;;8.50;;
29812;SDS011;16707;48.106;11.548;2023-04-06T04:38:30;15.18;;;8.80;;
29812;SDS011;16707;48.106;11.548;2023-04-06T04:40:57;13.15;;;8.60;;
29812;SDS011;16707;48.106;11.548;2023-04-06T04:43:26;11.80;;;8.20;;
29812;SDS011;16707;48.106;11.548;2023-04-06T04:45:55;11.82;;;8.75;;
29812;SDS011;16707;48.106;11.548;2023-04-06T04:48:24;11.00;;;8.35;;
29812;SDS011;16707;48.106;11.548;2023-04-06T04:50:54;13.18;;;8.25;;
29812;SDS011;16707;48.106;11.548;2023-04-06T04:53:21;12.80;;;8.40;;
29812;SDS011;16707;48.106;11.548;2023-04-06T04:55:48;13.57;;;8.02;;
29812;SDS011;16707;48.106;11.548;2023-04-06T04:58:21;13.10;;;8.23;;
29812;SDS011;16707;48.106;11.548;2023-04-06T05:00:51;10.85;;;7.57;;
29812;SDS011;16707;48.106;11.548;2023-04-06T05:03:19;10.98;;;8.07;;
29812;SDS011;16707;48.106;11.548;2023-04-06T05:05:48;10.25;;;7.90;;
29812;SDS011;16707;48.106;11.548;2023-04-06T05:08:16;14.27;;;9.02;;
29812;SDS011;16707;48.106;11.548;2023-04-06T05:10:50;12.27;;;8.07;;
29812;SDS011;16707;48.106;11.548;2023-04-06T05:13:20;13.23;;;7.03;;
29812;SDS011;16707;48.106;11.548;2023-04-06T05:15:55;12.90;;;7.70;;
29812;SDS011;16707;48.106;11.548;2023-04-06T05:18:22;12.73;;;8.35;;
29812;SDS011;16707;48.106;11.548;2023-04-06T05:20:50;7.80;;;5.82;;
29812;SDS011;16707;48.106;11.548;2023-04-06T05:23:20;7.57;;;5.53;;
29812;SDS011;16707;48.106;11.548;2023-04-06T05:25:52;14.55;;;6.32;;
29812;SDS011;16707;48.106;11.548;2023-04-06T05:28:26;9.00;;;5.35;;
29812;SDS011;16707;48.106;11.548;2023-04-06T05:30:53;9.75;;;6.65;;
29812;SDS011;16707;48.106;11.548;2023-04-06T05:33:22;9.50;;;4.90;;
29812;SDS011;16707;48.106;11.548;2023-04-06T05:35:53;6.35;;;4.68;;
29812;SDS011;16707;48.106;11.548;2023-04-06T05:38:20;6.57;;;5.07;;
29812;SDS011;16707;48.106;11.548;2023-04-06T05:40:47;6.55;;;5.03;;
29812;SDS011;16707;48.106;11.548;2023-04-06T05:43:14;7.28;;;4.88;;
29812;SDS011;16707;48.106;11.548;2023-04-06T05:45:43;8.45;;;4.90;;
29812;SDS011;16707;48.106;11.548;2023-04-06T05:48:12;7.43;;;4.93;;
29812;SDS011;16707;48.106;11.548;2023-04-06T05:50:39;5.85;;;5.15;;
29812;SDS011;16707;48.106;11.548;2023-04-06T05:53:13;7.43;;;5.25;;
29812;SDS011;16707;48.106;11.548;2023-04-06T05:55:43;8.48;;;4.88;;
29812;SDS011;16707;48.106;11.548;2023-04-06T05:58:10;9.02;;;5.32;;
29812;SDS011;16707;48.106;11.548;2023-04-06T06:00:37;6.85;;;4.43;;
29812;SDS011;16707;48.106;11.548;2023-04-06T06:03:07;6.68;;;4.95;;
29812;SDS011;16707;48.106;11.548;2023-04-06T06:05:35;6.00;;;4.65;;
29812;SDS011;16707;48.106;11.548;2023-04-06T06:08:02;8.02;;;5.32;;
29812;SDS011;16707;48.106;11.548;2023-04-06T06:10:29;7.00;;;4.90;;
29812;SDS011;16707;48.106;11.548;2023-04-06T06:12:56;4.88;;;4.30;;
29812;SDS011;16707;48.106;11.548;2023-04-06T06:15:24;8.88;;;4.72;;
29812;SDS011;16707;48.106;11.548;2023-04-06T06:17:51;5.88;;;4.68;;
29812;SDS011;16707;48.106;11.548;2023-04-06T06:20:18;6.00;;;4.80;;
29812;SDS011;16707;48.106;11.548;2023-04-06T06:22:46;5.60;;;4.82;;
29812;SDS011;16707;48.106;11.548;2023-04-06T06:25:13;5.90;;;4.72;;
29812;SDS011;16707;48.106;11.548;2023-04-06T06:27:40;5.50;;;4.35;;
29812;SDS011;16707;48.106;11.548;2023-04-06T06:30:08;6.68;;;4.38;;
29812;SDS011;16707;48.106;11.548;2023-04-06T06:32:36;5.75;;;4.45;;
29812;SDS011;16707;48.106;11.548;2023-04-06T06:35:06;6.25;;;4.90;;
29812;SDS011;16707;48.106;11.548;2023-04-06T06:37:34;7.38;;;5.07;;
29812;SDS011;16707;48.106;11.548;2023-04-06T06:40:02;6.20;;;5.20;;
29812;SDS011;16707;48.106;11.548;2023-04-06T06:42:33;6.82;;;4.57;;
29812;SDS011;16707;48.106;11.548;2023-04-06T06:45:00;5.30;;;4.60;;
29812;SDS011;16707;48.106;11.548;2023-04-06T06:47:27;7.35;;;5.18;;
29812;SDS011;16707;48.106;11.548;2023-04-06T06:49:57;8.20;;;5.28;;
29812;SDS011;16707;48.106;11.548;2023-04-06T06:52:28;6.60;;;5.03;;
29812;SDS011;16707;48.106;11.548;2023-04-06T06:54:55;10.02;;;5.30;;
29812;SDS011;16707;48.106;11.548;2023-04-06T06:57:27;8.48;;;5.20;;
29812;SDS011;16707;48.106;11.548;2023-04-06T06:59:55;11.07;;;5.10;;
29812;SDS011;16707;48.106;11.548;2023-04-06T07:02:24;9.15;;;5.07;;
29812;SDS011;16707;48.106;11.548;2023-04-06T07:04:52;8.57;;;5.35;;
29812;SDS011;16707;48.106;11.548;2023-04-06T07:07:22;8.18;;;5.15;;
29812;SDS011;16707;48.106;11.548;2023-04-06T07:09:49;6.22;;;4.90;;
29812;SDS011;16707;48.106;11.548;2023-04-06T07:12:19;8.07;;;4.78;;
29812;SDS011;16707;48.106;11.548;2023-04-06T07:14:47;7.40;;;4.45;;
29812;SDS011;16707;48.106;11.548;2023-04-06T07:17:15;7.43;;;5.22;;
29812;SDS011;16707;48.106;11.548;2023-04-06T07:19:42;5.18;;;4.47;;
29812;SDS011;16707;48.106;11.548;2023-04-06T07:22:15;7.45;;;4.50;;
29812;SDS011;16707;48.106;11.548;2023-04-06T07:24:42;5.75;;;4.28;;
29812;SDS011;16707;48.106;11.548;2023-04-06T07:27:09;5.50;;;4.78;;
29812;SDS011;16707;48.106;11.548;2023-04-06T07:29:36;7.20;;;4.10;;
29812;SDS011;16707;48.106;11.548;2023-04-06T07:32:08;5.07;;;4.57;;
29812;SDS011;16707;48.106;11.548;2023-04-06T07:34:37;5.60;;;4.15;;
29812;SDS011;16707;48.106;11.548;2023-04-06T07:37:07;5.95;;;4.15;;
29812;SDS011;16707;48.106;11.548;2023-04-06T07:39:35;7.88;;;4.78;;
29812;SDS011;16707;48.106;11.548;2023-04-06T07:42:02;7.03;;;4.88;;
29812;SDS011;16707;48.106;11.548;2023-04-06T07:44:29;7.75;;;4.80;;
29812;SDS011;16707;48.106;11.548;2023-04-06T07:46:56;7.90;;;5.10;;
29812;SDS011;16707;48.106;11.548;2023-04-06T07:49:25;7.63;;;5.40;;
29812;SDS011;16707;48.106;11.548;2023-04-06T07:51:53;6.53;;;4.95;;
29812;SDS011;16707;48.106;11.548;2023-04-06T07:54:29;7.47;;;5.10;;
29812;SDS011;16707;48.106;11.548;2023-04-06T07:56:56;8.25;;;5.53;;
29812;SDS011;16707;48.106;11.548;2023-04-06T07:59:23;7.15;;;5.13;;
29812;SDS011;16707;48.106;11.548;2023-04-06T08:01:52;9.20;;;5.93;;
29812;SDS011;16707;48.106;11.548;2023-04-06T08:04:27;8.48;;;5.80;;
29812;SDS011;16707;48.106;11.548;2023-04-06T08:06:54;9.80;;;5.97;;
29812;SDS011;16707;48.106;11.548;2023-04-06T08:09:22;12.13;;;5.75;;
29812;SDS011;16707;48.106;11.548;2023-04-06T08:11:49;7.85;;;5.40;;
29812;SDS011;16707;48.106;11.548;2023-04-06T08:14:16;8.65;;;5.75;;
29812;SDS011;16707;48.106;11.548;2023-04-06T08:16:46;8.25;;;5.85;;
29812;SDS011;16707;48.106;11.548;2023-04-06T08:19:13;8.45;;;5.40;;
29812;SDS011;16707;48.106;11.548;2023-04-06T08:21:50;7.03;;;5.80;;
29812;SDS011;16707;48.106;11.548;2023-04-06T08:24:18;8.32;;;5.82;;
29812;SDS011;16707;48.106;11.548;2023-04-06T08:26:45;9.27;;;6.35;;
29812;SDS011;16707;48.106;11.548;2023-04-06T08:29:12;11.90;;;6.25;;
29812;SDS011;16707;48.106;11.548;2023-04-06T08:31:41;8.50;;;6.05;;
29812;SDS011;16707;48.106;11.548;2023-04-06T08:34:08;8.05;;;5.40;;
29812;SDS011;16707;48.106;11.548;2023-04-06T08:36:35;8.00;;;5.82;;
29812;SDS011;16707;48.106;11.548;2023-04-06T08:39:08;8.18;;;6.07;;
29812;SDS011;16707;48.106;11.548;2023-04-06T08:41:36;7.63;;;5.60;;
29812;SDS011;16707;48.106;11.548;2023-04-06T08:44:03;9.10;;;6.32;;
29812;SDS011;16707;48.106;11.548;2023-04-06T08:46:31;8.30;;;5.03;;
29812;SDS011;16707;48.106;11.548;2023-04-06T08:48:58;8.80;;;5.75;;
29812;SDS011;16707;48.106;11.548;2023-04-06T08:51:34;7.63;;;5.53;;
29812;SDS011;16707;48.106;11.548;2023-04-06T08:54:03;8.13;;;5.47;;
29812;SDS011;16707;48.106;11.548;2023-04-06T08:56:32;6.93;;;5.28;;
29812;SDS011;16707;48.106;11.548;2023-04-06T08:59:03;8.77;;;5.63;;
29812;SDS011;16707;48.106;11.548;2023-04-06T09:01:33;10.68;;;6.03;;
29812;SDS011;16707;48.106;11.548;2023-04-06T09:04:08;9.35;;;5.70;;
29812;SDS011;16707;48.106;11.548;2023-04-06T09:06:36;8.30;;;5.55;;
29812;SDS011;16707;48.106;11.548;2023-04-06T09:09:05;8.38;;;6.13;;
29812;SDS011;16707;48.106;11.548;2023-04-06T09:11:44;10.13;;;5.90;;
29812;SDS011;16707;48.106;11.548;2023-04-06T09:14:12;9.90;;;6.25;;
29812;SDS011;16707;48.106;11.548;2023-04-06T09:16:40;9.80;;;6.28;;
29812;SDS011;16707;48.106;11.548;2023-04-06T09:19:08;7.95;;;5.97;;
29812;SDS011;16707;48.106;11.548;2023-04-06T09:21:36;9.63;;;6.90;;
29812;SDS011;16707;48.106;11.548;2023-04-06T09:24:05;8.35;;;6.43;;
29812;SDS011;16707;48.106;11.548;2023-04-06T09:26:45;8.73;;;6.05;;
29812;SDS011;16707;48.106;11.548;2023-04-06T09:29:21;8.40;;;5.80;;
29812;SDS011;16707;48.106;11.548;2023-04-06T09:31:51;7.80;;;6.32;;
29812;SDS011;16707;48.106;11.548;2023-04-06T09:34:21;6.72;;;5.40;;
29812;SDS011;16707;48.106;11.548;2023-04-06T09:36:53;6.17;;;5.10;;
29812;SDS011;16707;48.106;11.548;2023-04-06T09:39:21;7.97;;;5.97;;
29812;SDS011;16707;48.106;11.548;2023-04-06T09:41:51;7.40;;;5.60;;
29812;SDS011;16707;48.106;11.548;2023-04-06T09:44:19;9.48;;;5.65;;
29812;SDS011;16707;48.106;11.548;2023-04-06T09:46:46;10.02;;;6.43;;
29812;SDS011;16707;48.106;11.548;2023-04-06T09:49:19;7.22;;;5.50;;
29812;SDS011;16707;48.106;11.548;2023-04-06T09:51:48;7.57;;;5.85;;
29812;SDS011;16707;48.106;11.548;2023-04-06T09:54:32;8.27;;;5.22;;
29812;SDS011;16707;48.106;11.548;2023-04-06T09:57:07;9.52;;;6.22;;
29812;SDS011;16707;48.106;11.548;2023-04-06T09:59:42;8.95;;;5.90;;
29812;SDS011;16707;48.106;11.548;2023-04-06T10:02:18;8.45;;;5.63;;
29812;SDS011;16707;48.106;11.548;2023-04-06T10:04:53;7.45;;;5.40;;
29812;SDS011;16707;48.106;11.548;2023-04-06T10:07:25;6.73;;;5.30;;
29812;SDS011;16707;48.106;11.548;2023-04-06T10:09:53;9.50;;;5.55;;
29812;SDS011;16707;48.106;11.548;2023-04-06T10:12:22;9.05;;;5.90;;
29812;SDS011;16707;48.106;11.548;2023-04-06T10:14:49;8.55;;;5.93;;
29812;SDS011;16707;48.106;11.548;2023-04-06T10:17:18;8.30;;;6.72;;
29812;SDS011;16707;48.106;11.548;2023-04-06T10:19:49;7.38;;;5.75;;
29812;SDS011;16707;48.106;11.548;2023-04-06T10:22:22;8.73;;;5.85;;
29812;SDS011;16707;48.106;11.548;2023-04-06T10:24:51;8.23;;;6.05;;
29812;SDS011;16707;48.106;11.548;2023-04-06T10:27:28;7.13;;;5.50;;
29812;SDS011;16707;48.106;11.548;2023-04-06T10:30:00;8.10;;;6.05;;
29812;SDS011;16707;48.106;11.548;2023-04-06T10:32:32;8.20;;;5.18;;
29812;SDS011;16707;48.106;11.548;2023-04-06T10:35:07;7.00;;;5.93;;
29812;SDS011;16707;48.106;11.548;2023-04-06T10:37:51;10.27;;;6.07;;
29812;SDS011;16707;48.106;11.548;2023-04-06T10:40:20;11.60;;;7.13;;
29812;SDS011;16707;48.106;11.548;2023-04-06T10:42:51;9.50;;;5.75;;
29812;SDS011;16707;48.106;11.548;2023-04-06T10:45:19;8.43;;;6.45;;
29812;SDS011;16707;48.106;11.548;2023-04-06T10:47:47;7.22;;;5.70;;
29812;SDS011;16707;48.106;11.548;2023-04-06T10:50:18;9.77;;;6.60;;
29812;SDS011;16707;48.106;11.548;2023-04-06T10:52:48;10.38;;;6.32;;
29812;SDS011;16707;48.106;11.548;2023-04-06T10:55:28;9.43;;;6.30;;
29812;SDS011;16707;48.106;11.548;2023-04-06T10:57:57;9.85;;;6.25;;
29812;SDS011;16707;48.106;11.548;2023-04-06T11:00:44;7.55;;;5.80;;
29812;SDS011;16707;48.106;11.548;2023-04-06T11:03:13;7.25;;;5.43;;
29812;SDS011;16707;48.106;11.548;2023-04-06T11:05:43;7.72;;;5.60;;
29812;SDS011;16707;48.106;11.548;2023-04-06T11:08:21;8.48;;;6.15;;
29812;SDS011;16707;48.106;11.548;2023-04-06T11:10:49;9.23;;;6.68;;
29812;SDS011;16707;48.106;11.548;2023-04-06T11:13:17;10.38;;;6.38;;
29812;SDS011;16707;48.106;11.548;2023-04-06T11:15:44;7.40;;;5.55;;
29812;SDS011;16707;48.106;11.548;2023-04-06T11:18:11;9.10;;;6.78;;
29812;SDS011;16707;48.106;11.548;2023-04-06T11:20:38;9.70;;;6.38;;
29812;SDS011;16707;48.106;11.548;2023-04-06T11:23:07;9.57;;;6.65;;
29812;SDS011;16707;48.106;11.548;2023-04-06T11:25:34;9.38;;;6.82;;
29812;SDS011;16707;48.106;11.548;2023-04-06T11:28:01;9.00;;;6.25;;
29812;SDS011;16707;48.106;11.548;2023-04-06T11:30:29;7.55;;;5.88;;
29812;SDS011;16707;48.106;11.548;2023-04-06T11:33:01;8.05;;;5.88;;
29812;SDS011;16707;48.106;11.548;2023-04-06T11:35:29;9.80;;;6.35;;
29812;SDS011;16707;48.106;11.548;2023-04-06T11:38:02;7.57;;;6.32;;
29812;SDS011;16707;48.106;11.548;2023-04-06T11:40:29;7.95;;;5.95;;
29812;SDS011;16707;48.106;11.548;2023-04-06T11:42:58;7.43;;;5.65;;
29812;SDS011;16707;48.106;11.548;2023-04-06T11:45:25;8.32;;;6.13;;
29812;SDS011;16707;48.106;11.548;2023-04-06T11:47:56;8.18;;;6.38;;
29812;SDS011;16707;48.106;11.548;2023-04-06T11:50:24;7.38;;;5.65;;
29812;SDS011;16707;48.106;11.548;2023-04-06T11:52:57;7.35;;;5.85;;
29812;SDS011;16707;48.106;11.548;2023-04-06T11:55:25;8.88;;;6.25;;
29812;SDS011;16707;48.106;11.548;2023-04-06T11:57:53;6.97;;;5.85;;
29812;SDS011;16707;48.106;11.548;2023-04-06T12:00:20;8.63;;;5.88;;
29812;SDS011;16707;48.106;11.548;2023-04-06T12:02:48;8.35;;;5.70;;
29812;SDS011;16707;48.106;11.548;2023-04-06T12:05:17;6.72;;;5.93;;
29812;SDS011;16707;48.106;11.548;2023-04-06T12:07:44;6.57;;;5.57;;
29812;SDS011;16707;48.106;11.548;2023-04-06T12:10:11;8.27;;;5.95;;
29812;SDS011;16707;48.106;11.548;2023-04-06T12:12:38;8.18;;;5.70;;
29812;SDS011;16707;48.106;11.548;2023-04-06T12:15:06;8.88;;;6.03;;
29812;SDS011;16707;48.106;11.548;2023-04-06T12:17:34;8.50;;;6.18;;
29812;SDS011;16707;48.106;11.548;2023-04-06T12:20:02;13.52;;;6.60;;
29812;SDS011;16707;48.106;11.548;2023-04-06T12:22:30;5.57;;;4.63;;
29812;SDS011;16707;48.106;11.548;2023-04-06T12:24:58;5.80;;;5.20;;
29812;SDS011;16707;48.106;11.548;2023-04-06T12:27:25;5.75;;;4.80;;
29812;SDS011;16707;48.106;11.548;2023-04-06T12:29:55;8.00;;;5.10;;
29812;SDS011;16707;48.106;11.548;2023-04-06T12:32:22;6.72;;;4.50;;
29812;SDS011;16707;48.106;11.548;2023-04-06T12:34:48;6.00;;;5.20;;
29812;SDS011;16707;48.106;11.548;2023-04-06T12:37:17;7.63;;;5.07;;
29812;SDS011;16707;48.106;11.548;2023-04-06T12:39:45;5.75;;;5.15;;
29812;SDS011;16707;48.106;11.548;2023-04-06T12:42:12;6.28;;;5.20;;
29812;SDS011;16707;48.106;11.548;2023-04-06T12:44:39;5.07;;;4.50;;
29812;SDS011;16707;48.106;11.548;2023-04-06T12:47:07;6.78;;;5.45;;
29812;SDS011;16707;48.106;11.548;2023-04-06T12:49:36;7.30;;;6.07;;
29812;SDS011;16707;48.106;11.548;2023-04-06T12:52:03;7.05;;;5.63;;
29812;SDS011;16707;48.106;11.548;2023-04-06T12:54:30;5.43;;;4.75;;
29812;SDS011;16707;48.106;11.548;2023-04-06T12:56:58;5.95;;;4.82;;
29812;SDS011;16707;48.106;11.548;2023-04-06T12:59:26;6.97;;;4.97;;
29812;SDS011;16707;48.106;11.548;2023-04-06T13:01:59;8.25;;;4.93;;
29812;SDS011;16707;48.106;11.548;2023-04-06T13:04:26;7.50;;;5.10;;
29812;SDS011;16707;48.106;11.548;2023-04-06T13:06:53;7.78;;;5.38;;
29812;SDS011;16707;48.106;11.548;2023-04-06T13:09:23;6.95;;;5.13;;
29812;SDS011;16707;48.106;11.548;2023-04-06T13:11:50;5.82;;;5.20;;
29812;SDS011;16707;48.106;11.548;2023-04-06T13:14:19;6.90;;;4.85;;
29812;SDS011;16707;48.106;11.548;2023-04-06T13:16:46;7.45;;;5.07;;
29812;SDS011;16707;48.106;11.548;2023-04-06T13:19:13;6.07;;;4.68;;
29812;SDS011;16707;48.106;11.548;2023-04-06T13:21:40;7.35;;;5.80;;
29812;SDS011;16707;48.106;11.548;2023-04-06T13:24:07;6.97;;;5.53;;
29812;SDS011;16707;48.106;11.548;2023-04-06T13:26:34;5.60;;;4.60;;
29812;SDS011;16707;48.106;11.548;2023-04-06T13:29:01;8.10;;;5.88;;
29812;SDS011;16707;48.106;11.548;2023-04-06T13:31:30;6.32;;;5.40;;
29812;SDS011;16707;48.106;11.548;2023-04-06T13:33:57;8.18;;;4.85;;
29812;SDS011;16707;48.106;11.548;2023-04-06T13:36:27;6.57;;;4.82;;
29812;SDS011;16707;48.106;11.548;2023-04-06T13:38:54;7.25;;;4.82;;
29812;SDS011;16707;48.106;11.548;2023-04-06T13:41:22;6.32;;;4.55;;
29812;SDS011;16707;48.106;11.548;2023-04-06T13:43:50;6.45;;;5.20;;
29812;SDS011;16707;48.106;11.548;2023-04-06T13:46:17;8.15;;;5.35;;
29812;SDS011;16707;48.106;11.548;2023-04-06T13:48:46;7.57;;;5.07;;
29812;SDS011;16707;48.106;11.548;2023-04-06T13:51:13;6.75;;;5.10;;
29812;SDS011;16707;48.106;11.548;2023-04-06T13:53:40;6.43;;;5.07;;
29812;SDS011;16707;48.106;11.548;2023-04-06T13:56:07;6.75;;;5.43;;
29812;SDS011;16707;48.106;11.548;2023-04-06T13:58:35;5.57;;;4.80;;
29812;SDS011;16707;48.106;11.548;2023-04-06T14:01:02;6.85;;;4.95;;
29812;SDS011;16707;48.106;11.548;2023-04-06T14:03:31;6.38;;;4.10;;
29812;SDS011;16707;48.106;11.548;2023-04-06T14:05:59;5.80;;;4.40;;
29812;SDS011;16707;48.106;11.548;2023-04-06T14:08:26;6.05;;;4.82;;
29812;SDS011;16707;48.106;11.548;2023-04-06T14:10:53;7.22;;;4.50;;
29812;SDS011;16707;48.106;11.548;2023-04-06T14:13:20;5.00;;;4.43;;
29812;SDS011;16707;48.106;11.548;2023-04-06T14:15:52;6.65;;;4.93;;
29812;SDS011;16707;48.106;11.548;2023-04-06T14:18:20;5.15;;;4.43;;
29812;SDS011;16707;48.106;11.548;2023-04-06T14:20:53;8.95;;;4.93;;
29812;SDS011;16707;48.106;11.548;2023-04-06T14:23:22;5.75;;;4.90;;
29812;SDS011;16707;48.106;11.548;2023-04-06T14:25:51;6.05;;;4.82;;
29812;SDS011;16707;48.106;11.548;2023-04-06T14:28:20;6.05;;;4.60;;
29812;SDS011;16707;48.106;11.548;2023-04-06T14:30:47;7.88;;;4.97;;
29812;SDS011;16707;48.106;11.548;2023-04-06T14:33:14;5.28;;;4.15;;
29812;SDS011;16707;48.106;11.548;2023-04-06T14:35:41;5.43;;;4.32;;
29812;SDS011;16707;48.106;11.548;2023-04-06T14:38:08;6.05;;;4.28;;
29812;SDS011;16707;48.106;11.548;2023-04-06T14:40:36;5.13;;;3.97;;